Time;durP1;ratioP1;P1;durP2;ratioP2;P2;SDS_P1;SDS_P2;PMS_P1;PMS_P2;Temp;Humidity;BMP_temperature;BMP_pressure;BME280_temperature;BME280_humidity;BME280_pressure;Samples;Min_cycle;Max_cycle;Signal;HPM_P1;HPM_P2
2022/07/01 00:00:33;;;;;;;2.42;2.22;;;24.30;61.40;;;;;;5053399;28;20241;-72
2022/07/01 00:03:01;;;;;;;2.00;1.90;;;24.30;61.40;;;;;;5068707;28;20187;-72
2022/07/01 00:05:28;;;;;;;2.30;2.10;;;24.30;61.40;;;;;;5068411;28;20200;-72
2022/07/01 00:07:55;;;;;;;3.70;1.92;;;24.30;61.50;;;;;;5052320;28;20253;-72
2022/07/01 00:10:22;;;;;;;1.88;1.77;;;24.30;61.60;;;;;;5053139;28;20196;-72
2022/07/01 00:12:49;;;;;;;1.80;1.70;;;24.30;61.60;;;;;;5051818;28;20203;-72
2022/07/01 00:15:15;;;;;;;2.97;2.10;;;24.30;61.60;;;;;;5055918;28;20615;-72
2022/07/01 00:17:43;;;;;;;2.50;1.85;;;24.30;61.60;;;;;;5072308;28;20230;-72
2022/07/01 00:20:12;;;;;;;1.98;1.80;;;24.30;61.50;;;;;;5055933;28;20198;-72
2022/07/01 00:22:40;;;;;;;1.80;1.70;;;24.30;61.60;;;;;;5055933;28;20198;-72
2022/07/01 00:25:07;;;;;;;1.90;1.80;;;24.30;61.60;;;;;;5055657;28;20226;-72
2022/07/01 00:27:37;;;;;;;1.83;1.67;;;24.30;61.60;;;;;;5056845;28;20211;-71
2022/07/01 00:30:05;;;;;;;2.17;1.73;;;24.20;61.50;;;;;;5072152;28;20286;-72
2022/07/01 00:32:32;;;;;;;2.28;1.80;;;24.20;61.60;;;;;;5055516;28;20203;-72
2022/07/01 00:34:59;;;;;;;1.77;1.67;;;24.20;61.70;;;;;;5056921;28;20204;-72
2022/07/01 00:37:27;;;;;;;2.08;1.85;;;24.20;61.70;;;;;;5055453;28;20195;-72
2022/07/01 00:39:54;;;;;;;1.60;1.50;;;24.20;61.70;;;;;;5056450;28;20238;-72
2022/07/01 00:42:21;;;;;;;1.83;1.73;;;24.20;61.80;;;;;;5055279;28;20203;-72
2022/07/01 00:44:49;;;;;;;2.15;1.80;;;24.20;61.80;;;;;;5072029;28;20338;-72
2022/07/01 00:47:16;;;;;;;1.83;1.73;;;24.20;61.90;;;;;;5056810;28;20195;-72
2022/07/01 00:49:43;;;;;;;1.90;1.70;;;24.20;62.00;;;;;;5055230;28;20581;-72
2022/07/01 00:52:10;;;;;;;2.00;1.80;;;24.20;62.00;;;;;;5055178;28;20212;-72
2022/07/01 00:54:39;;;;;;;1.70;1.60;;;24.10;61.90;;;;;;5054908;28;20241;-72
2022/07/01 00:57:08;;;;;;;1.70;1.60;;;24.10;62.00;;;;;;5056392;28;20192;-72
2022/07/01 00:59:35;;;;;;;1.95;1.83;;;24.10;62.00;;;;;;5056333;28;20276;-72
2022/07/01 01:02:03;;;;;;;1.70;1.58;;;24.10;62.10;;;;;;5055034;28;20204;-72
2022/07/01 01:04:30;;;;;;;1.88;1.77;;;24.10;62.10;;;;;;5056116;28;20180;-72
2022/07/01 01:06:57;;;;;;;1.95;1.60;;;24.00;62.00;;;;;;5055105;28;20571;-72
2022/07/01 01:09:25;;;;;;;1.67;1.58;;;24.00;62.00;;;;;;5056071;28;20208;-72
2022/07/01 01:11:53;;;;;;;1.60;1.50;;;24.00;62.10;;;;;;5054672;28;20191;-72
2022/07/01 01:14:21;;;;;;;1.50;1.40;;;24.00;62.10;;;;;;5054635;28;20221;-71
2022/07/01 01:16:48;;;;;;;1.55;1.45;;;24.00;62.10;;;;;;5056214;28;20191;-72
2022/07/01 01:19:15;;;;;;;1.42;1.33;;;24.00;62.20;;;;;;5054386;28;20219;-72
2022/07/01 01:21:43;;;;;;;1.85;1.60;;;24.00;62.20;;;;;;5055844;28;20664;-72
2022/07/01 01:24:11;;;;;;;1.50;1.40;;;24.00;63.00;;;;;;5071340;28;20199;-72
2022/07/01 01:26:38;;;;;;;1.70;1.60;;;24.00;62.20;;;;;;5055344;28;20657;-72
2022/07/01 01:29:07;;;;;;;1.50;1.40;;;24.00;62.30;;;;;;5054522;28;20211;-72
2022/07/01 01:31:34;;;;;;;1.52;1.42;;;24.00;62.30;;;;;;5054479;28;20210;-72
2022/07/01 01:34:01;;;;;;;1.52;1.42;;;23.90;62.20;;;;;;5054739;28;20273;-72
2022/07/01 01:36:28;;;;;;;1.45;1.30;;;23.90;62.20;;;;;;5054370;28;20204;-72
2022/07/01 01:38:58;;;;;;;1.45;1.35;;;23.90;62.20;;;;;;5055643;28;20212;-72
2022/07/01 01:41:25;;;;;;;1.67;1.40;;;23.90;62.20;;;;;;5055934;28;20176;-71
2022/07/01 01:43:52;;;;;;;1.55;1.40;;;23.90;62.20;;;;;;5055363;28;20187;-72
2022/07/01 01:46:19;;;;;;;1.48;1.38;;;23.90;62.20;;;;;;5055777;28;20191;-72
2022/07/01 01:48:46;;;;;;;1.58;1.48;;;23.90;62.30;;;;;;5055181;28;20221;-72
2022/07/01 01:51:14;;;;;;;1.77;1.40;;;23.90;62.30;;;;;;5054187;28;20204;-72
2022/07/01 01:53:41;;;;;;;1.30;1.20;;;23.90;62.30;;;;;;5055695;28;20637;-72
2022/07/01 01:56:09;;;;;;;1.55;1.38;;;23.90;62.20;;;;;;5054854;28;20229;-72
2022/07/01 01:58:42;;;;;;;1.48;1.38;;;23.80;62.10;;;;;;5055366;28;20688;-72
2022/07/01 02:01:09;;;;;;;1.58;1.30;;;23.80;62.20;;;;;;5054016;28;20278;-72
2022/07/01 02:03:36;;;;;;;1.38;1.27;;;23.80;62.20;;;;;;5055109;28;20270;-72
2022/07/01 02:06:04;;;;;;;1.40;1.30;;;23.80;62.20;;;;;;5053880;28;20199;-72
2022/07/01 02:08:31;;;;;;;1.00;1.00;;;23.80;62.00;;;;;;5055007;28;20239;-72
2022/07/01 02:10:58;;;;;;;1.45;1.13;;;23.80;62.10;;;;;;5053891;28;20203;-72
2022/07/01 02:13:27;;;;;;;1.20;1.10;;;23.80;61.90;;;;;;5070148;28;20196;-72
2022/07/01 02:15:54;;;;;;;1.60;1.50;;;23.80;62.10;;;;;;5053457;28;20206;-72
2022/07/01 02:18:21;;;;;;;1.30;1.13;;;23.80;62.20;;;;;;5053611;28;20219;-72
2022/07/01 02:20:48;;;;;;;1.50;1.40;;;23.80;61.90;;;;;;5053663;28;20199;-72
2022/07/01 02:23:15;;;;;;;1.40;1.30;;;23.80;62.10;;;;;;5070167;28;20195;-72
2022/07/01 02:25:42;;;;;;;1.40;1.30;;;23.70;62.10;;;;;;5053379;28;20667;-70
2022/07/01 02:28:10;;;;;;;1.30;1.20;;;23.70;62.90;;;;;;5053418;28;20223;-72
2022/07/01 02:30:38;;;;;;;1.23;1.13;;;23.70;62.10;;;;;;5053669;28;20195;-72
2022/07/01 02:33:06;;;;;;;1.33;1.05;;;23.80;62.10;;;;;;5069804;28;20199;-72
2022/07/01 02:35:33;;;;;;;1.10;1.10;;;23.70;62.00;;;;;;5069861;28;20269;-72
2022/07/01 02:38:00;;;;;;;1.17;1.08;;;23.70;61.70;;;;;;5069453;28;20223;-72
2022/07/01 02:40:27;;;;;;;1.30;1.20;;;23.70;62.00;;;;;;5053194;28;20195;-72
2022/07/01 02:42:55;;;;;;;1.58;1.10;;;23.70;62.10;;;;;;5052890;28;20199;-72
2022/07/01 02:45:22;;;;;;;1.10;1.10;;;23.70;62.10;;;;;;5052894;28;20199;-72
2022/07/01 02:47:50;;;;;;;1.33;1.17;;;23.70;62.00;;;;;;5069538;28;20215;-71
2022/07/01 02:50:19;;;;;;;1.15;1.15;;;23.70;61.70;;;;;;5053965;28;20207;-71
2022/07/01 02:52:46;;;;;;;1.05;1.00;;;23.70;61.60;;;;;;5052792;28;20664;-72
2022/07/01 02:55:14;;;;;;;1.20;1.10;;;23.70;62.00;;;;;;5052666;28;20215;-72
2022/07/01 02:57:41;;;;;;;1.30;1.15;;;23.70;61.70;;;;;;5052609;28;20219;-72
2022/07/01 03:00:08;;;;;;;1.20;1.10;;;23.60;61.90;;;;;;5054018;28;20192;-72
2022/07/01 03:02:35;;;;;;;1.20;1.10;;;23.70;62.20;;;;;;5052511;28;20200;-72
2022/07/01 03:05:04;;;;;;;1.38;1.20;;;23.60;62.00;;;;;;5052658;28;20204;-72
2022/07/01 03:07:32;;;;;;;1.20;1.10;;;23.60;62.00;;;;;;5053338;28;20226;-72
2022/07/01 03:09:59;;;;;;;1.42;1.00;;;23.60;61.90;;;;;;5053870;28;20187;-72
2022/07/01 03:12:27;;;;;;;2.35;1.00;;;23.60;60.70;;;;;;5052393;28;20245;-73
2022/07/01 03:14:54;;;;;;;0.95;0.90;;;23.60;61.40;;;;;;5069052;28;20221;-71
2022/07/01 03:17:22;;;;;;;0.80;0.80;;;23.60;61.70;;;;;;5053327;28;20191;-72
2022/07/01 03:19:51;;;;;;;0.90;0.90;;;23.60;61.80;;;;;;5053835;28;20179;-72
2022/07/01 03:22:19;;;;;;;1.30;1.20;;;23.60;61.90;;;;;;5052313;28;20637;-71
2022/07/01 03:24:46;;;;;;;0.93;0.90;;;23.50;61.70;;;;;;5069079;28;20191;-71
2022/07/01 03:27:14;;;;;;;1.10;0.90;;;23.60;61.70;;;;;;5052277;28;20677;-72
2022/07/01 03:29:42;;;;;;;0.82;0.80;;;23.70;61.60;;;;;;5052221;28;20286;-72
2022/07/01 03:32:10;;;;;;;0.90;0.90;;;23.70;61.40;;;;;;5052128;28;20655;-71
2022/07/01 03:34:37;;;;;;;0.88;0.88;;;23.70;61.20;;;;;;5051991;28;20216;-72
2022/07/01 03:37:05;;;;;;;0.93;0.93;;;23.80;61.10;;;;;;5051897;28;20208;-72
2022/07/01 03:39:33;;;;;;;0.77;0.77;;;23.80;60.80;;;;;;5051995;28;20734;-72
2022/07/01 03:42:00;;;;;;;0.80;0.80;;;23.90;60.70;;;;;;5053204;28;20682;-72
2022/07/01 03:44:28;;;;;;;1.00;0.90;;;23.90;60.50;;;;;;5051868;28;20195;-72
2022/07/01 03:46:55;;;;;;;2.03;0.90;;;24.00;60.40;;;;;;5068833;28;20735;-72
2022/07/01 03:49:22;;;;;;;0.77;0.77;;;24.00;60.30;;;;;;5052819;28;20724;-72
2022/07/01 03:51:49;;;;;;;0.70;0.70;;;24.00;60.30;;;;;;5052461;28;20191;-72
2022/07/01 03:54:32;;;;;;;0.82;0.80;;;24.00;60.20;;;;;;5051673;28;20219;-72
2022/07/01 03:57:01;;;;;;;2.22;1.00;;;24.00;60.20;;;;;;5065863;28;20175;-72
2022/07/01 03:59:28;;;;;;;0.88;0.80;;;24.00;60.00;;;;;;5052133;28;20233;-72
2022/07/01 04:01:55;;;;;;;0.93;0.90;;;24.00;60.00;;;;;;5068935;28;20764;-71
2022/07/01 04:04:22;;;;;;;0.80;0.80;;;24.00;60.00;;;;;;5053088;28;20572;-72
2022/07/01 04:06:49;;;;;;;0.70;0.68;;;24.00;60.00;;;;;;5051931;28;20272;-72
2022/07/01 04:09:16;;;;;;;0.70;0.70;;;24.00;59.90;;;;;;5051886;28;20583;-72
2022/07/01 04:11:44;;;;;;;0.90;0.90;;;24.00;60.00;;;;;;5051623;28;20326;-71
2022/07/01 04:14:13;;;;;;;0.80;0.80;;;24.00;59.90;;;;;;5051461;28;20195;-72
2022/07/01 04:16:40;;;;;;;1.10;0.93;;;24.00;59.90;;;;;;5068277;28;20648;-72
2022/07/01 04:19:07;;;;;;;0.70;0.70;;;24.00;59.90;;;;;;5068124;28;20242;-72
2022/07/01 04:24:18;;;;;;;1.08;0.77;;;24.00;60.00;;;;;;5051680;28;20616;-72
2022/07/01 04:26:45;;;;;;;0.93;0.77;;;23.90;59.90;;;;;;5053073;28;20722;-72
2022/07/01 04:29:13;;;;;;;0.80;0.80;;;23.90;59.90;;;;;;5051378;28;20723;-72
2022/07/01 04:31:41;;;;;;;1.27;0.90;;;23.90;59.90;;;;;;5051566;28;20203;-72
2022/07/01 04:34:08;;;;;;;0.80;0.80;;;23.90;60.00;;;;;;5052706;28;20191;-72
2022/07/01 04:36:35;;;;;;;1.00;0.90;;;23.90;60.00;;;;;;5068697;28;20226;-72
2022/07/01 04:39:03;;;;;;;0.95;0.68;;;23.90;59.10;;;;;;5052774;28;20221;-72
2022/07/01 04:44:16;;;;;;;1.88;1.17;;;23.80;56.80;;;;;;5051597;28;20195;-72
2022/07/01 04:46:43;;;;;;;1.23;0.90;;;23.80;56.10;;;;;;5053012;28;20188;-72
2022/07/01 04:49:10;;;;;;;1.75;1.10;;;23.70;55.60;;;;;;5051417;28;20222;-72
2022/07/01 04:51:37;;;;;;;1.80;0.82;;;23.70;55.30;;;;;;5068104;28;20656;-72
2022/07/01 04:54:04;;;;;;;1.00;1.00;;;23.60;55.20;;;;;;5051308;28;20199;-72
2022/07/01 04:56:32;;;;;;;1.55;0.80;;;23.60;55.20;;;;;;5052872;28;20556;-72
2022/07/01 04:58:59;;;;;;;0.73;0.73;;;23.50;55.10;;;;;;5067996;28;20258;-72
2022/07/01 05:01:28;;;;;;;0.93;0.93;;;23.50;55.20;;;;;;5070426;28;20205;-72
2022/07/01 05:03:56;;;;;;;2.13;1.00;;;23.40;55.70;;;;;;5054840;28;20197;-72
2022/07/01 05:06:23;;;;;;;0.90;0.85;;;23.40;55.10;;;;;;5056106;28;20213;-72
2022/07/01 05:08:49;;;;;;;1.30;1.05;;;23.40;55.30;;;;;;5056057;28;20234;-72
2022/07/01 05:11:16;;;;;;;0.85;0.85;;;23.40;55.00;;;;;;5056332;28;20194;-72
2022/07/01 05:13:43;;;;;;;1.83;0.90;;;23.30;54.60;;;;;;5054863;28;20203;-72
2022/07/01 05:16:10;;;;;;;2.97;0.90;;;23.30;54.60;;;;;;5054741;28;20714;-72
2022/07/01 05:24:08;;;;;;;0.70;0.68;;;23.20;55.30;;;;;;5055124;28;20229;-70
2022/07/01 05:26:36;;;;;;;0.80;0.80;;;23.20;55.50;;;;;;5056055;28;20188;-72
2022/07/01 05:29:03;;;;;;;1.60;1.00;;;23.20;55.90;;;;;;5054401;28;20223;-71
2022/07/01 05:31:30;;;;;;;0.60;0.60;;;23.20;56.10;;;;;;5071284;28;20286;-70
2022/07/01 05:33:58;;;;;;;0.80;0.80;;;23.20;56.20;;;;;;5054743;28;20291;-71
2022/07/01 05:36:25;;;;;;;1.13;0.70;;;23.20;56.30;;;;;;5054679;28;20215;-71
2022/07/01 05:38:53;;;;;;;1.65;0.98;;;23.20;56.40;;;;;;5058790;28;20282;-71
2022/07/01 05:41:19;;;;;;;1.13;1.02;;;23.20;56.60;;;;;;5088501;28;20652;-71
2022/07/01 05:43:46;;;;;;;0.75;0.73;;;23.20;56.60;;;;;;5056662;28;20195;-71
2022/07/01 05:46:14;;;;;;;0.70;0.70;;;23.10;56.60;;;;;;5071350;28;20261;-72
2022/07/01 05:48:40;;;;;;;0.80;0.80;;;23.10;56.50;;;;;;5054614;28;20310;-72
2022/07/01 05:51:09;;;;;;;0.90;0.90;;;23.20;56.80;;;;;;5054416;28;20196;-72
2022/07/01 05:53:36;;;;;;;0.75;0.75;;;23.20;56.80;;;;;;5071143;28;20222;-71
2022/07/01 05:56:02;;;;;;;1.20;0.88;;;23.20;56.80;;;;;;5054400;28;20302;-71
2022/07/01 05:58:30;;;;;;;1.77;1.02;;;23.20;56.80;;;;;;5071212;28;20215;-72
2022/07/01 06:00:57;;;;;;;0.73;0.73;;;23.20;57.00;;;;;;5071605;28;20249;-71
2022/07/01 06:03:24;;;;;;;1.45;0.95;;;23.20;56.90;;;;;;5053969;28;20188;-71
2022/07/01 06:05:51;;;;;;;1.35;0.90;;;23.20;56.90;;;;;;5053770;28;20192;-71
2022/07/01 06:08:19;;;;;;;1.40;1.00;;;23.20;56.90;;;;;;5054982;28;20204;-71
2022/07/01 06:10:46;;;;;;;1.50;1.10;;;23.20;56.90;;;;;;5053482;28;20206;-71
2022/07/01 06:13:14;;;;;;;1.70;1.17;;;23.10;57.00;;;;;;5055012;28;20199;-71
2022/07/01 06:15:41;;;;;;;1.17;1.08;;;23.20;56.90;;;;;;5053831;28;20215;-71
2022/07/01 06:18:09;;;;;;;0.88;0.88;;;23.10;56.90;;;;;;5053340;28;20683;-71
2022/07/01 06:20:36;;;;;;;2.15;1.02;;;23.10;56.90;;;;;;5054789;28;20193;-71
2022/07/01 06:23:03;;;;;;;1.85;1.27;;;23.20;56.90;;;;;;5053512;28;20282;-71
2022/07/01 06:25:31;;;;;;;0.93;0.90;;;23.10;57.00;;;;;;5070231;28;20222;-71
2022/07/01 06:27:59;;;;;;;1.20;1.10;;;23.20;56.80;;;;;;5053237;28;20208;-70
2022/07/01 06:30:26;;;;;;;1.00;0.90;;;23.20;56.80;;;;;;5053227;28;20230;-71
2022/07/01 06:32:53;;;;;;;2.20;1.10;;;23.20;56.90;;;;;;5054732;28;20203;-71
2022/07/01 06:35:20;;;;;;;1.45;1.00;;;23.20;57.10;;;;;;5054692;28;20250;-71
2022/07/01 06:37:47;;;;;;;1.25;1.17;;;23.20;56.80;;;;;;5053145;28;20696;-71
2022/07/01 06:40:14;;;;;;;1.65;0.90;;;23.20;56.80;;;;;;5053151;28;20253;-71
2022/07/01 06:42:43;;;;;;;1.88;1.20;;;23.20;57.00;;;;;;5053111;28;20236;-71
2022/07/01 06:45:11;;;;;;;1.00;1.00;;;23.20;56.80;;;;;;5069864;28;20199;-71
2022/07/01 06:47:38;;;;;;;1.48;1.30;;;23.20;57.00;;;;;;5069720;28;20268;-71
2022/07/01 06:50:06;;;;;;;1.45;1.08;;;23.20;57.00;;;;;;5054620;28;20191;-71
2022/07/01 06:52:33;;;;;;;1.58;1.20;;;23.20;57.10;;;;;;5054219;28;20195;-70
2022/07/01 06:55:00;;;;;;;1.20;1.10;;;23.20;56.90;;;;;;5053959;28;20210;-71
2022/07/01 06:57:28;;;;;;;1.30;1.20;;;23.20;57.00;;;;;;5052915;28;20203;-71
2022/07/01 06:59:56;;;;;;;1.25;1.15;;;23.20;57.00;;;;;;5052855;28;20199;-71
2022/07/01 07:02:23;;;;;;;1.55;1.00;;;23.20;57.00;;;;;;5052926;28;20721;-71
2022/07/01 07:04:50;;;;;;;1.40;1.10;;;23.20;57.10;;;;;;5052995;28;20206;-71
2022/07/01 07:07:17;;;;;;;3.60;1.20;;;23.20;57.00;;;;;;5053223;28;20207;-70
2022/07/01 07:09:44;;;;;;;1.13;1.00;;;23.20;57.00;;;;;;5053643;28;20199;-71
2022/07/01 07:12:11;;;;;;;1.48;1.13;;;23.20;57.00;;;;;;5052903;28;20202;-71
2022/07/01 07:14:39;;;;;;;1.30;1.20;;;23.20;57.00;;;;;;5053956;28;20270;-71
2022/07/01 07:17:07;;;;;;;1.20;1.10;;;23.20;57.10;;;;;;5052507;28;20229;-71
2022/07/01 07:19:35;;;;;;;3.00;1.10;;;23.20;57.10;;;;;;5052434;28;20230;-71
2022/07/01 07:22:01;;;;;;;1.80;1.20;;;23.20;57.10;;;;;;5052819;28;20198;-70
2022/07/01 07:24:29;;;;;;;1.30;1.20;;;23.20;57.10;;;;;;5052114;28;20237;-71
2022/07/01 07:26:56;;;;;;;1.27;1.17;;;23.20;57.00;;;;;;5053707;28;20727;-71
2022/07/01 07:29:23;;;;;;;1.67;1.35;;;23.20;57.10;;;;;;5053535;28;20303;-72
2022/07/01 07:31:50;;;;;;;1.75;1.13;;;23.20;56.80;;;;;;5052235;28;20201;-71
2022/07/01 07:34:18;;;;;;;1.17;1.17;;;23.20;56.80;;;;;;5052394;28;20210;-71
2022/07/01 07:36:46;;;;;;;1.45;1.02;;;23.20;57.10;;;;;;5052296;28;20230;-72
2022/07/01 07:39:13;;;;;;;1.30;1.20;;;23.20;57.10;;;;;;5052359;28;20655;-72
2022/07/01 07:41:40;;;;;;;1.30;1.20;;;23.20;57.10;;;;;;5052330;28;20238;-72
2022/07/01 07:44:07;;;;;;;1.83;1.20;;;23.20;57.10;;;;;;5069057;28;20686;-73
2022/07/01 07:46:34;;;;;;;1.42;1.33;;;23.20;57.10;;;;;;5052314;28;20238;-71
2022/07/01 07:49:01;;;;;;;1.17;1.08;;;23.20;57.10;;;;;;5053241;28;20207;-72
2022/07/01 07:51:30;;;;;;;1.30;1.20;;;23.20;56.90;;;;;;5052063;28;20200;-72
2022/07/01 07:53:57;;;;;;;1.95;1.20;;;23.10;57.00;;;;;;5052041;28;20200;-72
2022/07/01 07:56:24;;;;;;;1.10;1.10;;;23.20;57.10;;;;;;5052054;28;20223;-72
2022/07/01 07:58:51;;;;;;;1.58;1.10;;;23.20;57.10;;;;;;5069668;28;20714;-72
2022/07/01 08:01:18;;;;;;;1.35;1.25;;;23.20;57.10;;;;;;5053835;28;20218;-72
2022/07/01 08:03:45;;;;;;;1.20;0.90;;;23.10;57.00;;;;;;5052763;28;20267;-73
2022/07/01 08:06:13;;;;;;;1.73;1.20;;;23.20;57.10;;;;;;5054052;28;20582;-72
2022/07/01 08:08:41;;;;;;;1.15;1.05;;;23.10;57.20;;;;;;5055626;28;20219;-72
2022/07/01 08:11:08;;;;;;;1.17;1.05;;;23.10;57.00;;;;;;5055157;28;20204;-72
2022/07/01 08:13:35;;;;;;;1.73;1.38;;;23.20;57.10;;;;;;5056937;28;20591;-72
2022/07/01 08:16:03;;;;;;;1.00;1.00;;;23.10;56.90;;;;;;5055068;28;20264;-72
2022/07/01 08:18:30;;;;;;;1.20;1.10;;;23.20;56.90;;;;;;5056140;28;20231;-72
2022/07/01 08:20:57;;;;;;;0.95;0.95;;;23.20;56.80;;;;;;5056159;28;20205;-72
2022/07/01 08:23:25;;;;;;;1.35;1.13;;;23.10;57.30;;;;;;5072290;28;20208;-72
2022/07/01 08:25:53;;;;;;;1.10;1.00;;;23.20;56.80;;;;;;5055221;28;20550;-72
2022/07/01 08:28:20;;;;;;;1.08;0.90;;;23.20;56.90;;;;;;5071890;28;20219;-72
2022/07/01 08:30:47;;;;;;;1.10;1.00;;;23.20;57.10;;;;;;5052373;28;20208;-72
2022/07/01 08:33:14;;;;;;;1.20;1.10;;;23.20;57.10;;;;;;5052578;28;20570;-72
2022/07/01 08:35:41;;;;;;;1.45;1.23;;;23.20;57.70;;;;;;5069730;28;20211;-72
2022/07/01 08:38:08;;;;;;;1.50;1.20;;;23.20;57.20;;;;;;5055731;28;20223;-72
2022/07/01 08:40:36;;;;;;;1.13;1.02;;;23.30;57.20;;;;;;5072324;28;20195;-72
2022/07/01 08:43:06;;;;;;;1.50;1.38;;;23.30;57.20;;;;;;5055495;28;20214;-72
2022/07/01 08:45:34;;;;;;;1.15;1.00;;;23.30;57.00;;;;;;5072321;28;20199;-72
2022/07/01 08:48:01;;;;;;;1.50;1.30;;;23.30;57.00;;;;;;5056154;28;20660;-72
2022/07/01 08:50:28;;;;;;;4.32;1.10;;;23.30;56.90;;;;;;5055939;28;20191;-72
2022/07/01 08:52:55;;;;;;;1.10;1.10;;;23.30;56.80;;;;;;5055534;28;20601;-72
2022/07/01 08:55:23;;;;;;;0.93;0.93;;;23.30;57.40;;;;;;5072780;28;20203;-72
2022/07/01 08:57:50;;;;;;;1.30;1.20;;;23.40;56.80;;;;;;5056808;28;20221;-72
2022/07/01 09:00:18;;;;;;;1.00;0.90;;;23.40;56.80;;;;;;5055374;28;20235;-72
2022/07/01 09:02:53;;;;;;;1.88;1.13;;;23.40;56.80;;;;;;5071943;28;20195;-72
2022/07/01 09:05:20;;;;;;;1.95;1.00;;;23.40;57.50;;;;;;5055062;28;20663;-72
2022/07/01 09:07:48;;;;;;;1.67;1.00;;;23.40;56.80;;;;;;5056098;28;20306;-72
2022/07/01 09:10:17;;;;;;;1.15;1.05;;;23.40;56.80;;;;;;5055881;28;20196;-72
2022/07/01 09:12:45;;;;;;;1.10;0.95;;;23.40;56.80;;;;;;5055791;28;20268;-72
2022/07/01 09:15:27;;;;;;;1.30;1.20;;;23.40;56.60;;;;;;5055893;28;20192;-72
2022/07/01 09:17:56;;;;;;;1.05;1.05;;;23.40;56.60;;;;;;5056894;28;20223;-72
2022/07/01 09:20:25;;;;;;;1.00;1.00;;;23.40;56.70;;;;;;5056151;28;20204;-72
2022/07/01 09:22:59;;;;;;;1.35;1.10;;;23.40;56.60;;;;;;5056377;28;20214;-72
2022/07/01 09:25:30;;;;;;;1.58;1.10;;;23.40;56.50;;;;;;5056796;28;20566;-72
2022/07/01 09:28:08;;;;;;;1.30;1.20;;;23.40;56.50;;;;;;5055670;28;20219;-72
2022/07/01 09:30:37;;;;;;;1.15;1.05;;;23.40;56.50;;;;;;5054992;28;20195;-72
2022/07/01 09:33:12;;;;;;;1.40;1.20;;;23.40;56.40;;;;;;5055790;28;20211;-72
2022/07/01 09:35:39;;;;;;;1.20;1.10;;;23.40;56.50;;;;;;5056907;28;20203;-72
2022/07/01 09:38:07;;;;;;;1.52;1.23;;;23.30;56.60;;;;;;5055656;28;20589;-72
2022/07/01 09:40:50;;;;;;;1.70;1.15;;;23.40;56.70;;;;;;5057283;28;20195;-72
2022/07/01 09:43:18;;;;;;;1.25;1.15;;;23.40;56.90;;;;;;5055162;28;20586;-72
2022/07/01 09:46:08;;;;;;;1.58;1.00;;;23.40;56.90;;;;;;5054696;28;20199;-72
2022/07/01 09:48:46;;;;;;;1.55;1.05;;;23.40;56.40;;;;;;5049503;28;20216;-73
2022/07/01 09:51:15;;;;;;;1.83;1.20;;;23.40;56.40;;;;;;5055125;28;20226;-72
2022/07/01 09:53:42;;;;;;;1.13;0.98;;;23.30;56.30;;;;;;5055397;28;20203;-72
2022/07/01 09:56:09;;;;;;;1.35;1.25;;;23.30;56.20;;;;;;5054875;28;20231;-72
2022/07/01 09:58:38;;;;;;;1.30;1.20;;;23.30;57.00;;;;;;5056504;28;20568;-72
2022/07/01 10:01:07;;;;;;;1.45;1.25;;;23.30;56.40;;;;;;5054314;28;20200;-72
2022/07/01 10:03:36;;;;;;;1.60;1.10;;;23.30;56.40;;;;;;5071124;28;20281;-72
2022/07/01 10:06:35;;;;;;;1.33;1.23;;;23.30;57.20;;;;;;5055097;28;20215;-71
2022/07/01 10:09:15;;;;;;;1.35;1.10;;;23.30;56.60;;;;;;5054959;28;20284;-70
2022/07/01 10:12:15;;;;;;;1.23;1.10;;;23.30;56.60;;;;;;5053887;28;20191;-70
2022/07/01 10:14:42;;;;;;;1.85;1.02;;;23.30;56.60;;;;;;5029998;28;20207;-70
2022/07/01 10:17:10;;;;;;;1.17;1.10;;;23.30;56.60;;;;;;5070299;28;20219;-71
2022/07/01 10:19:38;;;;;;;1.75;0.98;;;23.30;56.70;;;;;;5054714;28;20191;-71
2022/07/01 10:22:27;;;;;;;1.00;1.00;;;23.30;56.60;;;;;;5053666;28;20204;-71
2022/07/01 10:24:54;;;;;;;1.55;1.17;;;23.30;56.70;;;;;;5053500;28;20214;-71
2022/07/01 10:27:22;;;;;;;1.17;1.08;;;23.30;56.40;;;;;;5053447;28;20195;-71
2022/07/01 10:29:48;;;;;;;1.05;1.05;;;23.20;56.30;;;;;;5053369;28;20219;-71
2022/07/01 10:32:27;;;;;;;2.47;1.27;;;23.30;56.40;;;;;;5070037;28;20199;-71
2022/07/01 10:35:04;;;;;;;2.00;1.10;;;23.30;56.50;;;;;;5070156;28;20359;-71
2022/07/01 10:37:31;;;;;;;1.33;1.00;;;23.30;56.60;;;;;;5070500;28;20241;-71
2022/07/01 10:39:58;;;;;;;1.00;1.00;;;23.30;56.10;;;;;;5053358;28;20195;-71
2022/07/01 10:42:30;;;;;;;1.27;0.90;;;23.30;56.20;;;;;;5053411;28;20671;-71
2022/07/01 10:45:07;;;;;;;1.73;0.90;;;23.40;56.10;;;;;;5054637;28;20667;-71
2022/07/01 10:47:34;;;;;;;1.52;1.13;;;23.40;56.10;;;;;;5070171;28;20225;-71
2022/07/01 10:50:06;;;;;;;1.10;1.00;;;23.40;56.20;;;;;;5054317;28;20191;-71
2022/07/01 10:52:34;;;;;;;1.48;1.23;;;23.50;55.90;;;;;;5053196;28;20203;-71
2022/07/01 10:55:02;;;;;;;1.33;1.23;;;23.50;55.90;;;;;;5053263;28;20199;-71
2022/07/01 10:57:31;;;;;;;2.20;1.20;;;23.50;55.90;;;;;;5052962;28;20314;-71
2022/07/01 11:00:32;;;;;;;1.13;1.02;;;23.50;55.80;;;;;;5053180;28;20202;-71
2022/07/01 11:03:13;;;;;;;1.10;1.00;;;23.60;55.70;;;;;;5052846;28;20199;-71
2022/07/01 11:05:42;;;;;;;1.15;1.00;;;23.70;55.70;;;;;;5053468;28;20231;-71
2022/07/01 11:08:11;;;;;;;1.10;1.00;;;23.70;55.60;;;;;;5054318;28;20757;-71
2022/07/01 11:10:39;;;;;;;1.05;0.95;;;23.80;55.50;;;;;;5069623;28;20249;-71
2022/07/01 11:13:06;;;;;;;0.85;0.85;;;23.80;55.30;;;;;;5054346;28;20219;-71
2022/07/01 11:15:33;;;;;;;2.60;1.45;;;23.80;55.20;;;;;;5070421;28;20192;-71
2022/07/01 11:18:01;;;;;;;1.40;1.20;;;23.80;55.10;;;;;;5054938;28;20219;-71
2022/07/01 11:20:31;;;;;;;1.30;1.20;;;23.80;55.10;;;;;;5054906;28;20199;-71
2022/07/01 11:23:00;;;;;;;1.08;0.98;;;23.80;55.20;;;;;;5056648;28;20192;-71
2022/07/01 11:25:27;;;;;;;1.02;0.90;;;23.80;55.20;;;;;;5054297;28;20200;-71
2022/07/01 11:27:54;;;;;;;1.67;1.00;;;23.80;55.40;;;;;;5054426;28;20273;-71
2022/07/01 11:30:22;;;;;;;1.30;1.10;;;23.90;56.00;;;;;;5054163;28;20188;-70
2022/07/01 11:32:49;;;;;;;2.15;1.20;;;23.90;55.10;;;;;;5054066;28;20274;-71
2022/07/01 11:40:51;;;;;;;2.03;1.10;;;24.00;54.60;;;;;;5052870;28;20191;-71
2022/07/01 11:43:20;;;;;;;1.27;1.13;;;24.00;54.40;;;;;;5069099;28;20195;-71
2022/07/01 11:45:47;;;;;;;1.63;1.20;;;24.00;54.80;;;;;;5069226;28;20197;-71
2022/07/01 11:48:21;;;;;;;1.75;1.00;;;24.10;54.40;;;;;;5052445;28;20211;-71
2022/07/01 11:50:48;;;;;;;1.30;1.20;;;24.00;54.40;;;;;;5052826;28;20285;-71
2022/07/01 11:53:16;;;;;;;1.10;1.00;;;24.10;54.50;;;;;;5052721;28;20206;-71
2022/07/01 11:55:46;;;;;;;1.17;1.13;;;24.10;54.20;;;;;;5052510;28;20206;-71
2022/07/01 11:58:13;;;;;;;1.60;1.20;;;24.10;54.40;;;;;;5053570;28;20215;-71
2022/07/01 12:00:41;;;;;;;1.23;0.93;;;24.10;54.50;;;;;;5076448;22;20242;-74
2022/07/01 12:03:08;;;;;;;1.52;1.05;;;24.00;54.70;;;;;;5052040;28;20226;-74
2022/07/01 12:05:35;;;;;;;1.33;0.95;;;24.00;54.60;;;;;;5051955;28;20652;-74
2022/07/01 12:08:03;;;;;;;0.90;0.90;;;24.00;54.80;;;;;;5051965;28;20198;-74
2022/07/01 12:10:31;;;;;;;1.30;1.10;;;24.00;54.80;;;;;;5055898;28;20274;-75
2022/07/01 12:12:59;;;;;;;1.08;0.95;;;24.00;54.70;;;;;;5055938;28;20199;-74
2022/07/01 12:15:25;;;;;;;1.05;0.95;;;24.00;54.80;;;;;;5056176;28;20225;-74
2022/07/01 12:17:54;;;;;;;1.13;0.90;;;24.00;54.90;;;;;;5056326;28;20242;-74
2022/07/01 12:20:32;;;;;;;2.10;1.05;;;24.10;55.50;;;;;;5070346;28;20695;-74
2022/07/01 12:23:12;;;;;;;0.90;0.90;;;24.20;55.50;;;;;;5057399;28;20228;-74
2022/07/01 12:25:40;;;;;;;1.95;1.00;;;24.20;54.90;;;;;;5055741;28;20195;-74
2022/07/01 12:28:07;;;;;;;1.20;1.10;;;24.30;54.90;;;;;;5055583;28;20191;-75
2022/07/01 12:30:34;;;;;;;1.90;1.08;;;24.30;55.30;;;;;;5056847;28;20187;-73
2022/07/01 12:33:10;;;;;;;1.48;1.27;;;24.40;54.70;;;;;;5072347;28;20687;-73
2022/07/01 12:35:38;;;;;;;1.23;1.00;;;24.50;54.20;;;;;;5055635;28;20191;-73
2022/07/01 12:38:07;;;;;;;2.42;1.27;;;24.50;54.30;;;;;;5071626;28;20218;-73
2022/07/01 12:40:34;;;;;;;1.20;1.00;;;24.50;54.10;;;;;;5071929;28;20231;-74
2022/07/01 12:43:06;;;;;;;0.93;0.90;;;24.60;53.80;;;;;;5055346;28;20195;-74
2022/07/01 12:45:36;;;;;;;0.90;0.90;;;24.60;53.70;;;;;;5056544;28;20207;-74
2022/07/01 12:48:04;;;;;;;1.60;0.90;;;24.60;53.60;;;;;;5055075;28;20223;-74
2022/07/01 12:50:32;;;;;;;1.45;1.10;;;24.60;53.30;;;;;;5072395;28;20245;-74
2022/07/01 12:53:01;;;;;;;1.10;1.00;;;24.70;53.20;;;;;;5056585;28;20203;-73
2022/07/01 12:55:28;;;;;;;1.38;0.90;;;24.70;52.90;;;;;;5071984;28;20289;-74
2022/07/01 12:57:58;;;;;;;1.88;1.10;;;24.70;53.20;;;;;;5055083;28;20215;-73
2022/07/01 13:00:27;;;;;;;1.10;1.00;;;24.70;53.10;;;;;;5055084;28;20520;-73
2022/07/01 13:02:55;;;;;;;2.20;1.30;;;24.70;53.10;;;;;;5055308;28;20286;-74
2022/07/01 13:05:22;;;;;;;1.45;1.02;;;24.80;52.90;;;;;;5057095;28;20198;-74
2022/07/01 13:07:49;;;;;;;1.10;1.00;;;24.80;52.90;;;;;;5055168;28;20192;-73
2022/07/01 13:10:17;;;;;;;1.33;0.90;;;24.70;52.70;;;;;;5054778;28;20203;-75